sensor_id;sensor_type;location;lat;lon;timestamp;temperature;humidity
34726;DHT22;20951;50.818;4.344;2023-04-03T00:02:21;6.10;99.90
34726;DHT22;20951;50.818;4.344;2023-04-03T00:04:48;5.90;99.90
34726;DHT22;20951;50.818;4.344;2023-04-03T00:07:16;6.00;99.90
34726;DHT22;20951;50.818;4.344;2023-04-03T00:09:43;6.10;99.90
34726;DHT22;20951;50.818;4.344;2023-04-03T00:12:11;6.00;99.90
34726;DHT22;20951;50.818;4.344;2023-04-03T00:14:39;6.00;99.90
34726;DHT22;20951;50.818;4.344;2023-04-03T00:17:07;5.90;99.90
34726;DHT22;20951;50.818;4.344;2023-04-03T00:19:35;5.90;99.90
34726;DHT22;20951;50.818;4.344;2023-04-03T00:22:03;5.90;99.90
34726;DHT22;20951;50.818;4.344;2023-04-03T00:24:31;5.90;99.90
34726;DHT22;20951;50.818;4.344;2023-04-03T00:27:00;5.80;99.90
34726;DHT22;20951;50.818;4.344;2023-04-03T00:29:28;5.80;99.90
34726;DHT22;20951;50.818;4.344;2023-04-03T00:31:56;5.70;99.90
34726;DHT22;20951;50.818;4.344;2023-04-03T00:34:23;5.70;99.90
34726;DHT22;20951;50.818;4.344;2023-04-03T00:36:49;5.70;99.90
34726;DHT22;20951;50.818;4.344;2023-04-03T00:39:17;5.70;99.90
34726;DHT22;20951;50.818;4.344;2023-04-03T00:41:43;5.70;99.90
34726;DHT22;20951;50.818;4.344;2023-04-03T00:47:13;5.80;99.90
34726;DHT22;20951;50.818;4.344;2023-04-03T00:49:42;5.70;99.90
34726;DHT22;20951;50.818;4.344;2023-04-03T00:52:14;5.70;99.90
34726;DHT22;20951;50.818;4.344;2023-04-03T00:54:42;5.60;99.90
34726;DHT22;20951;50.818;4.344;2023-04-03T00:57:10;5.60;99.90
34726;DHT22;20951;50.818;4.344;2023-04-03T00:59:47;5.70;99.90
34726;DHT22;20951;50.818;4.344;2023-04-03T01:02:15;5.70;99.90
34726;DHT22;20951;50.818;4.344;2023-04-03T01:04:42;5.60;99.90
34726;DHT22;20951;50.818;4.344;2023-04-03T01:07:19;5.50;99.90
34726;DHT22;20951;50.818;4.344;2023-04-03T01:09:47;5.50;99.90
34726;DHT22;20951;50.818;4.344;2023-04-03T01:12:34;5.50;99.90
34726;DHT22;20951;50.818;4.344;2023-04-03T01:17:38;5.30;99.90
34726;DHT22;20951;50.818;4.344;2023-04-03T01:23:29;5.30;99.90
34726;DHT22;20951;50.818;4.344;2023-04-03T01:25:58;5.40;99.90
34726;DHT22;20951;50.818;4.344;2023-04-03T01:28:33;5.30;99.90
34726;DHT22;20951;50.818;4.344;2023-04-03T01:31:19;5.40;99.90
34726;DHT22;20951;50.818;4.344;2023-04-03T01:33:46;5.30;99.90
34726;DHT22;20951;50.818;4.344;2023-04-03T01:36:18;5.20;99.90
34726;DHT22;20951;50.818;4.344;2023-04-03T01:38:44;5.20;99.90
34726;DHT22;20951;50.818;4.344;2023-04-03T01:41:10;5.20;99.90
34726;DHT22;20951;50.818;4.344;2023-04-03T01:43:36;5.20;99.90
34726;DHT22;20951;50.818;4.344;2023-04-03T01:46:02;5.10;99.90
34726;DHT22;20951;50.818;4.344;2023-04-03T01:48:28;5.10;99.90
34726;DHT22;20951;50.818;4.344;2023-04-03T01:50:54;5.10;99.90
34726;DHT22;20951;50.818;4.344;2023-04-03T01:53:20;5.10;99.90
34726;DHT22;20951;50.818;4.344;2023-04-03T01:55:46;5.10;99.90
34726;DHT22;20951;50.818;4.344;2023-04-03T01:58:12;5.00;99.90
34726;DHT22;20951;50.818;4.344;2023-04-03T02:00:38;5.00;99.90
34726;DHT22;20951;50.818;4.344;2023-04-03T02:03:04;5.00;99.90
34726;DHT22;20951;50.818;4.344;2023-04-03T02:05:30;5.10;99.90
34726;DHT22;20951;50.818;4.344;2023-04-03T02:07:56;5.00;99.90
34726;DHT22;20951;50.818;4.344;2023-04-03T02:10:22;5.00;99.90
34726;DHT22;20951;50.818;4.344;2023-04-03T02:12:48;4.90;99.90
34726;DHT22;20951;50.818;4.344;2023-04-03T02:15:14;4.90;99.90
34726;DHT22;20951;50.818;4.344;2023-04-03T02:17:40;4.90;99.90
34726;DHT22;20951;50.818;4.344;2023-04-03T02:20:07;4.80;99.90
34726;DHT22;20951;50.818;4.344;2023-04-03T02:22:33;4.80;99.90
34726;DHT22;20951;50.818;4.344;2023-04-03T02:24:58;5.00;99.90
34726;DHT22;20951;50.818;4.344;2023-04-03T02:27:24;4.90;99.90
34726;DHT22;20951;50.818;4.344;2023-04-03T02:29:50;4.80;99.90
34726;DHT22;20951;50.818;4.344;2023-04-03T02:32:16;4.70;99.90
34726;DHT22;20951;50.818;4.344;2023-04-03T02:34:42;4.70;99.90
34726;DHT22;20951;50.818;4.344;2023-04-03T02:37:08;4.80;99.90
34726;DHT22;20951;50.818;4.344;2023-04-03T02:39:34;4.60;99.90
34726;DHT22;20951;50.818;4.344;2023-04-03T02:42:00;4.60;99.90
34726;DHT22;20951;50.818;4.344;2023-04-03T02:44:27;4.60;99.90
34726;DHT22;20951;50.818;4.344;2023-04-03T02:46:52;4.60;99.90
34726;DHT22;20951;50.818;4.344;2023-04-03T02:49:18;4.60;99.90
34726;DHT22;20951;50.818;4.344;2023-04-03T02:51:44;4.60;99.90
34726;DHT22;20951;50.818;4.344;2023-04-03T02:54:11;4.60;99.90
34726;DHT22;20951;50.818;4.344;2023-04-03T02:56:37;4.60;99.90
34726;DHT22;20951;50.818;4.344;2023-04-03T02:59:03;4.50;99.90
34726;DHT22;20951;50.818;4.344;2023-04-03T03:01:29;4.60;99.90
34726;DHT22;20951;50.818;4.344;2023-04-03T03:03:57;4.60;99.90
34726;DHT22;20951;50.818;4.344;2023-04-03T03:06:24;4.60;99.90
34726;DHT22;20951;50.818;4.344;2023-04-03T03:08:50;4.60;99.90
34726;DHT22;20951;50.818;4.344;2023-04-03T03:11:16;4.70;99.90
34726;DHT22;20951;50.818;4.344;2023-04-03T03:13:42;4.70;99.90
34726;DHT22;20951;50.818;4.344;2023-04-03T03:16:08;4.70;99.90
34726;DHT22;20951;50.818;4.344;2023-04-03T03:18:34;4.60;99.90
34726;DHT22;20951;50.818;4.344;2023-04-03T03:21:01;4.50;99.90
34726;DHT22;20951;50.818;4.344;2023-04-03T03:23:29;4.60;99.90
34726;DHT22;20951;50.818;4.344;2023-04-03T03:26:03;4.50;99.90
34726;DHT22;20951;50.818;4.344;2023-04-03T03:28:29;4.70;99.90
34726;DHT22;20951;50.818;4.344;2023-04-03T03:30:55;4.70;99.90
34726;DHT22;20951;50.818;4.344;2023-04-03T03:33:21;4.60;99.90
34726;DHT22;20951;50.818;4.344;2023-04-03T03:35:47;4.50;99.90
34726;DHT22;20951;50.818;4.344;2023-04-03T03:38:13;4.60;99.90
34726;DHT22;20951;50.818;4.344;2023-04-03T03:40:39;4.70;99.90
34726;DHT22;20951;50.818;4.344;2023-04-03T03:43:05;4.70;99.90
34726;DHT22;20951;50.818;4.344;2023-04-03T03:45:31;4.60;99.90
34726;DHT22;20951;50.818;4.344;2023-04-03T03:47:57;4.60;99.90
34726;DHT22;20951;50.818;4.344;2023-04-03T03:50:23;4.50;99.90
34726;DHT22;20951;50.818;4.344;2023-04-03T03:52:49;4.50;99.90
34726;DHT22;20951;50.818;4.344;2023-04-03T03:55:15;4.50;99.90
34726;DHT22;20951;50.818;4.344;2023-04-03T03:57:41;4.40;99.90
34726;DHT22;20951;50.818;4.344;2023-04-03T04:00:07;4.30;99.90
34726;DHT22;20951;50.818;4.344;2023-04-03T04:02:34;4.40;99.90
34726;DHT22;20951;50.818;4.344;2023-04-03T04:05:00;4.40;99.90
34726;DHT22;20951;50.818;4.344;2023-04-03T04:07:26;4.40;99.90
34726;DHT22;20951;50.818;4.344;2023-04-03T04:09:53;4.50;99.90
34726;DHT22;20951;50.818;4.344;2023-04-03T04:12:19;4.50;99.90
34726;DHT22;20951;50.818;4.344;2023-04-03T04:14:46;4.40;99.90
34726;DHT22;20951;50.818;4.344;2023-04-03T04:17:15;4.30;99.90
34726;DHT22;20951;50.818;4.344;2023-04-03T04:19:40;4.30;99.90
34726;DHT22;20951;50.818;4.344;2023-04-03T04:22:06;4.30;99.90
34726;DHT22;20951;50.818;4.344;2023-04-03T04:24:32;4.30;99.90
34726;DHT22;20951;50.818;4.344;2023-04-03T04:26:58;4.20;99.90
34726;DHT22;20951;50.818;4.344;2023-04-03T04:29:24;4.30;99.90
34726;DHT22;20951;50.818;4.344;2023-04-03T04:31:50;4.40;99.90
34726;DHT22;20951;50.818;4.344;2023-04-03T04:34:16;4.40;99.90
34726;DHT22;20951;50.818;4.344;2023-04-03T04:36:42;4.40;99.90
34726;DHT22;20951;50.818;4.344;2023-04-03T04:39:08;4.40;99.90
34726;DHT22;20951;50.818;4.344;2023-04-03T04:41:34;4.40;99.90
34726;DHT22;20951;50.818;4.344;2023-04-03T04:44:00;4.30;99.90
34726;DHT22;20951;50.818;4.344;2023-04-03T04:46:26;4.20;99.90
34726;DHT22;20951;50.818;4.344;2023-04-03T04:48:52;4.20;99.90
34726;DHT22;20951;50.818;4.344;2023-04-03T04:51:19;4.20;99.90
34726;DHT22;20951;50.818;4.344;2023-04-03T04:53:45;4.20;99.90
34726;DHT22;20951;50.818;4.344;2023-04-03T04:56:11;4.20;99.90
34726;DHT22;20951;50.818;4.344;2023-04-03T04:58:37;4.20;99.90
34726;DHT22;20951;50.818;4.344;2023-04-03T05:01:07;4.20;99.90
34726;DHT22;20951;50.818;4.344;2023-04-03T05:03:33;4.20;99.90
34726;DHT22;20951;50.818;4.344;2023-04-03T05:06:00;4.10;99.90
34726;DHT22;20951;50.818;4.344;2023-04-03T05:08:26;4.10;99.90
34726;DHT22;20951;50.818;4.344;2023-04-03T05:10:52;4.00;99.90
34726;DHT22;20951;50.818;4.344;2023-04-03T05:13:19;4.20;99.90
34726;DHT22;20951;50.818;4.344;2023-04-03T05:15:46;4.00;99.90
34726;DHT22;20951;50.818;4.344;2023-04-03T05:18:12;4.10;99.90
34726;DHT22;20951;50.818;4.344;2023-04-03T05:20:38;4.00;99.90
34726;DHT22;20951;50.818;4.344;2023-04-03T05:23:05;4.20;99.90
34726;DHT22;20951;50.818;4.344;2023-04-03T05:25:31;4.10;99.90
34726;DHT22;20951;50.818;4.344;2023-04-03T05:27:57;4.10;99.90
34726;DHT22;20951;50.818;4.344;2023-04-03T05:30:23;4.10;99.90
34726;DHT22;20951;50.818;4.344;2023-04-03T05:32:49;4.10;99.90
34726;DHT22;20951;50.818;4.344;2023-04-03T05:35:15;4.20;99.90
34726;DHT22;20951;50.818;4.344;2023-04-03T05:37:41;4.20;99.90
34726;DHT22;20951;50.818;4.344;2023-04-03T05:40:08;4.20;99.90
34726;DHT22;20951;50.818;4.344;2023-04-03T05:42:34;4.20;99.90
34726;DHT22;20951;50.818;4.344;2023-04-03T05:45:00;4.20;99.90
34726;DHT22;20951;50.818;4.344;2023-04-03T05:47:26;4.20;99.90
34726;DHT22;20951;50.818;4.344;2023-04-03T05:49:52;4.20;99.90
34726;DHT22;20951;50.818;4.344;2023-04-03T05:52:25;4.20;99.90
34726;DHT22;20951;50.818;4.344;2023-04-03T05:54:52;4.30;99.90
34726;DHT22;20951;50.818;4.344;2023-04-03T05:57:19;4.40;99.90
34726;DHT22;20951;50.818;4.344;2023-04-03T05:59:46;4.40;99.90
34726;DHT22;20951;50.818;4.344;2023-04-03T06:02:15;4.40;99.90
34726;DHT22;20951;50.818;4.344;2023-04-03T06:04:41;4.50;99.90
34726;DHT22;20951;50.818;4.344;2023-04-03T06:07:09;4.80;99.90
34726;DHT22;20951;50.818;4.344;2023-04-03T06:09:37;6.30;99.90
34726;DHT22;20951;50.818;4.344;2023-04-03T06:12:03;7.90;99.90
34726;DHT22;20951;50.818;4.344;2023-04-03T06:14:29;8.50;99.90
34726;DHT22;20951;50.818;4.344;2023-04-03T06:16:55;7.80;99.90
34726;DHT22;20951;50.818;4.344;2023-04-03T06:19:22;7.20;99.90
34726;DHT22;20951;50.818;4.344;2023-04-03T06:21:48;6.70;99.90
34726;DHT22;20951;50.818;4.344;2023-04-03T06:24:15;6.30;99.90
34726;DHT22;20951;50.818;4.344;2023-04-03T06:26:42;6.10;99.90
34726;DHT22;20951;50.818;4.344;2023-04-03T06:29:08;5.90;99.90
34726;DHT22;20951;50.818;4.344;2023-04-03T06:31:34;5.70;99.90
34726;DHT22;20951;50.818;4.344;2023-04-03T06:34:02;5.60;99.90
34726;DHT22;20951;50.818;4.344;2023-04-03T06:36:28;5.60;99.90
34726;DHT22;20951;50.818;4.344;2023-04-03T06:38:55;5.50;99.90
34726;DHT22;20951;50.818;4.344;2023-04-03T06:41:21;5.30;99.90
34726;DHT22;20951;50.818;4.344;2023-04-03T06:43:47;5.30;99.90
34726;DHT22;20951;50.818;4.344;2023-04-03T06:46:18;5.30;99.90
34726;DHT22;20951;50.818;4.344;2023-04-03T06:48:45;5.30;99.90
34726;DHT22;20951;50.818;4.344;2023-04-03T06:51:19;5.30;99.90
34726;DHT22;20951;50.818;4.344;2023-04-03T06:53:47;5.40;99.90
34726;DHT22;20951;50.818;4.344;2023-04-03T06:56:13;5.40;99.90
34726;DHT22;20951;50.818;4.344;2023-04-03T06:58:39;5.40;99.90
34726;DHT22;20951;50.818;4.344;2023-04-03T07:01:06;5.50;99.90
34726;DHT22;20951;50.818;4.344;2023-04-03T07:03:32;5.50;99.90
34726;DHT22;20951;50.818;4.344;2023-04-03T07:05:58;5.40;99.90
34726;DHT22;20951;50.818;4.344;2023-04-03T07:08:23;5.40;99.90
34726;DHT22;20951;50.818;4.344;2023-04-03T07:10:51;5.50;99.90
34726;DHT22;20951;50.818;4.344;2023-04-03T07:13:17;5.50;99.90
34726;DHT22;20951;50.818;4.344;2023-04-03T07:15:43;5.50;99.90
34726;DHT22;20951;50.818;4.344;2023-04-03T07:18:09;5.60;99.90
34726;DHT22;20951;50.818;4.344;2023-04-03T07:20:35;5.70;99.90
34726;DHT22;20951;50.818;4.344;2023-04-03T07:23:02;5.70;99.90
34726;DHT22;20951;50.818;4.344;2023-04-03T07:25:28;5.70;99.90
34726;DHT22;20951;50.818;4.344;2023-04-03T07:27:54;5.70;99.90
34726;DHT22;20951;50.818;4.344;2023-04-03T07:30:20;5.80;99.90
34726;DHT22;20951;50.818;4.344;2023-04-03T07:32:46;5.90;99.90
34726;DHT22;20951;50.818;4.344;2023-04-03T07:35:13;6.30;99.90
34726;DHT22;20951;50.818;4.344;2023-04-03T07:37:38;8.50;99.90
34726;DHT22;20951;50.818;4.344;2023-04-03T07:40:06;11.40;99.90
34726;DHT22;20951;50.818;4.344;2023-04-03T07:42:32;13.50;99.90
34726;DHT22;20951;50.818;4.344;2023-04-03T07:44:58;14.70;99.90
34726;DHT22;20951;50.818;4.344;2023-04-03T07:47:24;16.00;99.90
34726;DHT22;20951;50.818;4.344;2023-04-03T07:49:50;17.10;99.90
34726;DHT22;20951;50.818;4.344;2023-04-03T07:52:17;18.80;98.70
34726;DHT22;20951;50.818;4.344;2023-04-03T07:54:43;20.30;95.50
34726;DHT22;20951;50.818;4.344;2023-04-03T07:57:09;20.80;91.80
34726;DHT22;20951;50.818;4.344;2023-04-03T07:59:35;20.20;90.40
34726;DHT22;20951;50.818;4.344;2023-04-03T08:02:01;19.70;90.40
34726;DHT22;20951;50.818;4.344;2023-04-03T08:04:27;19.20;91.40
34726;DHT22;20951;50.818;4.344;2023-04-03T08:06:53;19.80;91.10
34726;DHT22;20951;50.818;4.344;2023-04-03T08:09:19;21.00;90.00
34726;DHT22;20951;50.818;4.344;2023-04-03T08:11:45;21.40;85.30
34726;DHT22;20951;50.818;4.344;2023-04-03T08:14:11;21.20;85.90
34726;DHT22;20951;50.818;4.344;2023-04-03T08:16:43;21.50;84.40
34726;DHT22;20951;50.818;4.344;2023-04-03T08:19:09;21.10;82.70
34726;DHT22;20951;50.818;4.344;2023-04-03T08:21:36;21.40;81.90
34726;DHT22;20951;50.818;4.344;2023-04-03T08:24:02;20.40;81.60
34726;DHT22;20951;50.818;4.344;2023-04-03T08:26:29;20.00;82.80
34726;DHT22;20951;50.818;4.344;2023-04-03T08:28:56;20.20;82.00
34726;DHT22;20951;50.818;4.344;2023-04-03T08:31:21;19.80;81.90
34726;DHT22;20951;50.818;4.344;2023-04-03T08:33:48;20.40;81.80
34726;DHT22;20951;50.818;4.344;2023-04-03T08:36:28;20.00;81.10
34726;DHT22;20951;50.818;4.344;2023-04-03T08:38:56;20.20;82.60
34726;DHT22;20951;50.818;4.344;2023-04-03T08:41:39;20.20;82.20
34726;DHT22;20951;50.818;4.344;2023-04-03T08:44:25;20.70;80.40
34726;DHT22;20951;50.818;4.344;2023-04-03T08:47:37;19.80;80.60
34726;DHT22;20951;50.818;4.344;2023-04-03T08:50:07;19.80;82.10
34726;DHT22;20951;50.818;4.344;2023-04-03T08:52:42;21.60;81.00
34726;DHT22;20951;50.818;4.344;2023-04-03T08:55:29;22.50;77.30
34726;DHT22;20951;50.818;4.344;2023-04-03T08:58:04;22.00;77.70
34726;DHT22;20951;50.818;4.344;2023-04-03T09:00:50;21.60;77.60
34726;DHT22;20951;50.818;4.344;2023-04-03T09:03:20;22.00;77.60
34726;DHT22;20951;50.818;4.344;2023-04-03T09:06:07;21.70;77.00
34726;DHT22;20951;50.818;4.344;2023-04-03T09:09:02;21.10;77.50
34726;DHT22;20951;50.818;4.344;2023-04-03T09:14:23;20.80;76.90
34726;DHT22;20951;50.818;4.344;2023-04-03T09:16:56;20.90;78.20
34726;DHT22;20951;50.818;4.344;2023-04-03T09:21:57;21.20;76.60
34726;DHT22;20951;50.818;4.344;2023-04-03T09:24:25;21.40;76.30
34726;DHT22;20951;50.818;4.344;2023-04-03T09:27:06;21.10;75.90
34726;DHT22;20951;50.818;4.344;2023-04-03T09:29:39;21.90;75.40
34726;DHT22;20951;50.818;4.344;2023-04-03T09:32:28;21.60;74.20
34726;DHT22;20951;50.818;4.344;2023-04-03T09:35:02;20.30;74.50
34726;DHT22;20951;50.818;4.344;2023-04-03T09:37:44;19.70;76.40
34726;DHT22;20951;50.818;4.344;2023-04-03T09:42:59;19.20;77.20
34726;DHT22;20951;50.818;4.344;2023-04-03T09:48:12;19.30;77.00
34726;DHT22;20951;50.818;4.344;2023-04-03T09:53:42;18.70;78.30
34726;DHT22;20951;50.818;4.344;2023-04-03T09:58:45;18.50;76.70
34726;DHT22;20951;50.818;4.344;2023-04-03T10:01:33;18.60;78.80
34726;DHT22;20951;50.818;4.344;2023-04-03T10:04:04;19.60;77.30
34726;DHT22;20951;50.818;4.344;2023-04-03T10:06:33;20.70;75.20
34726;DHT22;20951;50.818;4.344;2023-04-03T10:09:13;20.50;73.80
34726;DHT22;20951;50.818;4.344;2023-04-03T10:14:23;19.40;76.00
34726;DHT22;20951;50.818;4.344;2023-04-03T10:19:57;20.30;73.80
34726;DHT22;20951;50.818;4.344;2023-04-03T10:28:16;20.60;74.20
34726;DHT22;20951;50.818;4.344;2023-04-03T10:30:56;21.50;72.70
34726;DHT22;20951;50.818;4.344;2023-04-03T10:33:43;21.90;71.00
34726;DHT22;20951;50.818;4.344;2023-04-03T10:39:37;22.20;69.30
34726;DHT22;20951;50.818;4.344;2023-04-03T10:42:22;21.60;68.30
34726;DHT22;20951;50.818;4.344;2023-04-03T10:45:26;21.40;69.30
34726;DHT22;20951;50.818;4.344;2023-04-03T11:01:53;19.50;70.60
34726;DHT22;20951;50.818;4.344;2023-04-03T11:04:24;19.70;70.10
34726;DHT22;20951;50.818;4.344;2023-04-03T11:07:03;19.70;70.30
34726;DHT22;20951;50.818;4.344;2023-04-03T11:09:35;20.20;69.30
34726;DHT22;20951;50.818;4.344;2023-04-03T11:12:14;20.30;67.80
34726;DHT22;20951;50.818;4.344;2023-04-03T11:14:42;20.90;67.10
34726;DHT22;20951;50.818;4.344;2023-04-03T11:17:27;20.90;65.40
34726;DHT22;20951;50.818;4.344;2023-04-03T11:20:33;20.80;64.70
34726;DHT22;20951;50.818;4.344;2023-04-03T11:25:46;21.00;66.70
34726;DHT22;20951;50.818;4.344;2023-04-03T11:28:15;21.80;65.10
34726;DHT22;20951;50.818;4.344;2023-04-03T11:36:21;21.50;62.40
34726;DHT22;20951;50.818;4.344;2023-04-03T11:38:51;21.30;62.40
34726;DHT22;20951;50.818;4.344;2023-04-03T11:41:28;20.70;62.40
34726;DHT22;20951;50.818;4.344;2023-04-03T11:44:03;20.60;63.90
34726;DHT22;20951;50.818;4.344;2023-04-03T11:46:49;21.10;64.90
34726;DHT22;20951;50.818;4.344;2023-04-03T12:13:41;20.30;63.70
34726;DHT22;20951;50.818;4.344;2023-04-03T12:16:27;20.20;63.20
34726;DHT22;20951;50.818;4.344;2023-04-03T12:19:03;19.90;63.20
34726;DHT22;20951;50.818;4.344;2023-04-03T12:29:13;21.20;61.70
34726;DHT22;20951;50.818;4.344;2023-04-03T12:32:04;21.30;61.30
34726;DHT22;20951;50.818;4.344;2023-04-03T12:34:55;21.20;61.20
34726;DHT22;20951;50.818;4.344;2023-04-03T12:40:16;20.80;59.80
34726;DHT22;20951;50.818;4.344;2023-04-03T12:43:11;20.70;58.60
34726;DHT22;20951;50.818;4.344;2023-04-03T12:45:56;20.40;58.00
34726;DHT22;20951;50.818;4.344;2023-04-03T12:48:30;20.40;57.50
34726;DHT22;20951;50.818;4.344;2023-04-03T12:50:57;20.40;57.20
34726;DHT22;20951;50.818;4.344;2023-04-03T12:53:33;21.20;58.40
34726;DHT22;20951;50.818;4.344;2023-04-03T12:56:38;21.40;56.50
34726;DHT22;20951;50.818;4.344;2023-04-03T12:59:23;21.90;55.80
34726;DHT22;20951;50.818;4.344;2023-04-03T13:01:59;22.60;56.00
34726;DHT22;20951;50.818;4.344;2023-04-03T13:04:27;23.00;54.50
34726;DHT22;20951;50.818;4.344;2023-04-03T13:06:55;22.10;54.40
34726;DHT22;20951;50.818;4.344;2023-04-03T13:12:03;20.90;54.20
34726;DHT22;20951;50.818;4.344;2023-04-03T13:14:36;21.40;55.50
34726;DHT22;20951;50.818;4.344;2023-04-03T13:17:12;21.80;54.70
34726;DHT22;20951;50.818;4.344;2023-04-03T13:19:39;22.50;54.40
34726;DHT22;20951;50.818;4.344;2023-04-03T13:22:17;22.90;53.40
34726;DHT22;20951;50.818;4.344;2023-04-03T13:24:46;24.00;53.10
34726;DHT22;20951;50.818;4.344;2023-04-03T13:27:15;23.90;51.90
34726;DHT22;20951;50.818;4.344;2023-04-03T13:29:41;23.50;51.20
34726;DHT22;20951;50.818;4.344;2023-04-03T13:32:21;23.10;51.30
34726;DHT22;20951;50.818;4.344;2023-04-03T13:34:48;22.40;51.80
34726;DHT22;20951;50.818;4.344;2023-04-03T13:37:30;22.00;52.50
34726;DHT22;20951;50.818;4.344;2023-04-03T13:42:37;22.60;52.60
34726;DHT22;20951;50.818;4.344;2023-04-03T13:45:27;22.10;50.50
34726;DHT22;20951;50.818;4.344;2023-04-03T13:48:10;21.10;52.00
34726;DHT22;20951;50.818;4.344;2023-04-03T13:50:53;21.20;51.90
34726;DHT22;20951;50.818;4.344;2023-04-03T13:53:20;21.70;52.70
34726;DHT22;20951;50.818;4.344;2023-04-03T13:56:05;21.80;51.70
34726;DHT22;20951;50.818;4.344;2023-04-03T13:58:34;21.70;51.80
34726;DHT22;20951;50.818;4.344;2023-04-03T14:01:11;21.30;51.10
34726;DHT22;20951;50.818;4.344;2023-04-03T14:03:52;20.90;52.30
34726;DHT22;20951;50.818;4.344;2023-04-03T14:06:18;20.80;53.60
34726;DHT22;20951;50.818;4.344;2023-04-03T14:08:47;21.30;53.50
34726;DHT22;20951;50.818;4.344;2023-04-03T14:11:20;21.50;53.30
34726;DHT22;20951;50.818;4.344;2023-04-03T14:13:48;21.50;53.40
34726;DHT22;20951;50.818;4.344;2023-04-03T14:16:17;21.80;53.40
34726;DHT22;20951;50.818;4.344;2023-04-03T14:18:45;22.30;52.70
34726;DHT22;20951;50.818;4.344;2023-04-03T14:21:12;21.40;53.20
34726;DHT22;20951;50.818;4.344;2023-04-03T14:23:39;21.30;54.30
34726;DHT22;20951;50.818;4.344;2023-04-03T14:26:13;21.00;54.10
34726;DHT22;20951;50.818;4.344;2023-04-03T14:28:42;21.30;54.70
34726;DHT22;20951;50.818;4.344;2023-04-03T14:31:10;21.30;53.90
34726;DHT22;20951;50.818;4.344;2023-04-03T14:33:37;20.80;54.50
34726;DHT22;20951;50.818;4.344;2023-04-03T14:36:23;20.80;54.90
34726;DHT22;20951;50.818;4.344;2023-04-03T14:38:53;20.90;54.20
34726;DHT22;20951;50.818;4.344;2023-04-03T14:41:21;20.70;53.80
34726;DHT22;20951;50.818;4.344;2023-04-03T14:43:48;20.40;54.60
34726;DHT22;20951;50.818;4.344;2023-04-03T14:46:22;20.50;55.10
34726;DHT22;20951;50.818;4.344;2023-04-03T14:48:49;20.80;54.80
34726;DHT22;20951;50.818;4.344;2023-04-03T14:51:15;21.40;54.10
34726;DHT22;20951;50.818;4.344;2023-04-03T14:53:43;21.20;52.80
34726;DHT22;20951;50.818;4.344;2023-04-03T14:56:21;20.80;53.80
34726;DHT22;20951;50.818;4.344;2023-04-03T14:58:49;20.60;54.40
34726;DHT22;20951;50.818;4.344;2023-04-03T15:01:17;20.40;55.00
34726;DHT22;20951;50.818;4.344;2023-04-03T15:03:43;20.50;54.10
34726;DHT22;20951;50.818;4.344;2023-04-03T15:06:11;20.60;54.30
34726;DHT22;20951;50.818;4.344;2023-04-03T15:08:38;20.00;54.90
34726;DHT22;20951;50.818;4.344;2023-04-03T15:11:06;19.90;55.30
34726;DHT22;20951;50.818;4.344;2023-04-03T15:13:33;19.90;55.90
34726;DHT22;20951;50.818;4.344;2023-04-03T15:15:59;19.60;55.30
34726;DHT22;20951;50.818;4.344;2023-04-03T15:18:27;19.40;55.20
34726;DHT22;20951;50.818;4.344;2023-04-03T15:20:54;19.30;55.30
34726;DHT22;20951;50.818;4.344;2023-04-03T15:23:20;19.60;55.30
34726;DHT22;20951;50.818;4.344;2023-04-03T15:25:51;19.50;54.50
34726;DHT22;20951;50.818;4.344;2023-04-03T15:30:56;18.20;54.60
34726;DHT22;20951;50.818;4.344;2023-04-03T15:33:22;17.40;55.70
34726;DHT22;20951;50.818;4.344;2023-04-03T15:35:48;16.80;55.60
34726;DHT22;20951;50.818;4.344;2023-04-03T15:38:15;16.30;57.20
34726;DHT22;20951;50.818;4.344;2023-04-03T15:40:41;16.10;58.80
34726;DHT22;20951;50.818;4.344;2023-04-03T15:43:08;15.90;59.80
34726;DHT22;20951;50.818;4.344;2023-04-03T15:45:35;15.60;59.70
34726;DHT22;20951;50.818;4.344;2023-04-03T15:48:03;15.40;60.00
34726;DHT22;20951;50.818;4.344;2023-04-03T15:50:31;15.00;59.90
34726;DHT22;20951;50.818;4.344;2023-04-03T15:52:58;14.50;60.50
34726;DHT22;20951;50.818;4.344;2023-04-03T15:55:25;14.40;62.10
34726;DHT22;20951;50.818;4.344;2023-04-03T15:57:52;14.30;62.40
34726;DHT22;20951;50.818;4.344;2023-04-03T16:00:19;13.70;63.50
34726;DHT22;20951;50.818;4.344;2023-04-03T16:02:46;13.60;64.80
34726;DHT22;20951;50.818;4.344;2023-04-03T16:05:13;13.60;64.60
34726;DHT22;20951;50.818;4.344;2023-04-03T16:07:39;13.40;64.90
34726;DHT22;20951;50.818;4.344;2023-04-03T16:10:07;13.20;66.10
34726;DHT22;20951;50.818;4.344;2023-04-03T16:12:33;13.00;67.40
34726;DHT22;20951;50.818;4.344;2023-04-03T16:14:59;12.80;68.30
34726;DHT22;20951;50.818;4.344;2023-04-03T16:17:26;12.60;69.80
34726;DHT22;20951;50.818;4.344;2023-04-03T16:19:54;12.60;70.30
34726;DHT22;20951;50.818;4.344;2023-04-03T16:22:22;12.70;71.00
34726;DHT22;20951;50.818;4.344;2023-04-03T16:24:49;12.60;70.00
34726;DHT22;20951;50.818;4.344;2023-04-03T16:27:15;12.60;70.30
34726;DHT22;20951;50.818;4.344;2023-04-03T16:29:41;12.50;70.60
34726;DHT22;20951;50.818;4.344;2023-04-03T16:32:07;12.60;71.30
34726;DHT22;20951;50.818;4.344;2023-04-03T16:34:34;12.50;71.50
34726;DHT22;20951;50.818;4.344;2023-04-03T16:37:00;12.50;72.00
34726;DHT22;20951;50.818;4.344;2023-04-03T16:39:26;12.40;72.50
34726;DHT22;20951;50.818;4.344;2023-04-03T16:41:52;12.30;73.10
34726;DHT22;20951;50.818;4.344;2023-04-03T16:44:18;12.40;73.60
34726;DHT22;20951;50.818;4.344;2023-04-03T16:46:44;12.30;73.30
34726;DHT22;20951;50.818;4.344;2023-04-03T16:49:10;12.20;73.60
34726;DHT22;20951;50.818;4.344;2023-04-03T16:51:36;12.10;74.10
34726;DHT22;20951;50.818;4.344;2023-04-03T16:54:02;11.80;74.40
34726;DHT22;20951;50.818;4.344;2023-04-03T16:56:28;11.80;75.20
34726;DHT22;20951;50.818;4.344;2023-04-03T16:58:54;11.80;75.80
34726;DHT22;20951;50.818;4.344;2023-04-03T17:01:21;11.80;76.20
34726;DHT22;20951;50.818;4.344;2023-04-03T17:03:48;11.80;76.20
34726;DHT22;20951;50.818;4.344;2023-04-03T17:06:20;11.80;76.30
34726;DHT22;20951;50.818;4.344;2023-04-03T17:08:47;11.80;76.40
34726;DHT22;20951;50.818;4.344;2023-04-03T17:11:14;11.80;76.20
34726;DHT22;20951;50.818;4.344;2023-04-03T17:13:40;11.80;75.90
34726;DHT22;20951;50.818;4.344;2023-04-03T17:16:09;11.70;76.20
34726;DHT22;20951;50.818;4.344;2023-04-03T17:18:36;11.60;76.70
34726;DHT22;20951;50.818;4.344;2023-04-03T17:21:03;11.60;77.30
34726;DHT22;20951;50.818;4.344;2023-04-03T17:23:30;11.50;77.70
34726;DHT22;20951;50.818;4.344;2023-04-03T17:25:56;11.50;78.20
34726;DHT22;20951;50.818;4.344;2023-04-03T17:28:22;11.40;78.20
34726;DHT22;20951;50.818;4.344;2023-04-03T17:31:01;11.30;78.10
34726;DHT22;20951;50.818;4.344;2023-04-03T17:33:28;11.10;78.10
34726;DHT22;20951;50.818;4.344;2023-04-03T17:35:58;11.10;78.60
34726;DHT22;20951;50.818;4.344;2023-04-03T17:38:26;11.10;78.90